Time;durP1;ratioP1;P1;durP2;ratioP2;P2;SDS_P1;SDS_P2;PMS_P1;PMS_P2;Temp;Humidity;BMP_temperature;BMP_pressure;BME280_temperature;BME280_humidity;BME280_pressure;Samples;Min_cycle;Max_cycle;Signal;HPM_P1;HPM_P2
2023/07/28 00:02:03;;;;;;;3.80;3.22;;;15.70;99.90;;;;;;5049576;28;20487;-58
2023/07/28 00:04:29;;;;;;;3.15;2.95;;;15.70;99.90;;;;;;5046551;28;20053;-58
2023/07/28 00:06:55;;;;;;;4.13;3.72;;;15.60;99.90;;;;;;5045588;28;20063;-58
2023/07/28 00:09:20;;;;;;;3.60;3.30;;;15.60;99.90;;;;;;5035765;28;20073;-59
2023/07/28 00:11:46;;;;;;;3.60;3.30;;;15.60;99.90;;;;;;5049563;28;20025;-58
2023/07/28 00:14:11;;;;;;;4.43;3.65;;;15.60;99.90;;;;;;5046495;28;20043;-58
2023/07/28 00:16:37;;;;;;;4.75;4.35;;;15.70;99.90;;;;;;5045304;28;20024;-58
2023/07/28 00:19:03;;;;;;;3.90;3.35;;;15.70;99.90;;;;;;5044998;28;20552;-58
2023/07/28 00:21:29;;;;;;;3.95;3.33;;;15.70;99.90;;;;;;5046062;28;20063;-58
2023/07/28 00:23:54;;;;;;;3.97;3.67;;;15.70;99.90;;;;;;5046209;28;20551;-58
2023/07/28 00:26:20;;;;;;;5.57;3.95;;;15.70;99.90;;;;;;5035151;28;20101;-59
2023/07/28 00:28:45;;;;;;;4.00;3.60;;;15.70;99.90;;;;;;5044185;28;20033;-59
2023/07/28 00:31:11;;;;;;;4.63;4.22;;;15.70;99.90;;;;;;5052162;28;20118;-60
2023/07/28 00:33:37;;;;;;;4.13;3.72;;;15.70;99.90;;;;;;5042150;28;20538;-60
2023/07/28 00:36:03;;;;;;;3.33;3.03;;;15.70;99.90;;;;;;5045975;28;20021;-60
2023/07/28 00:38:29;;;;;;;3.13;2.88;;;15.70;99.90;;;;;;5037054;28;20284;-59
2023/07/28 00:40:54;;;;;;;3.30;2.85;;;15.70;99.90;;;;;;5043552;28;20025;-59
2023/07/28 00:43:20;;;;;;;4.97;3.55;;;15.70;99.90;;;;;;5038975;28;20106;-59
2023/07/28 00:45:45;;;;;;;3.95;3.55;;;15.70;99.90;;;;;;5045533;28;20021;-59
2023/07/28 00:48:13;;;;;;;4.07;3.67;;;15.70;99.90;;;;;;5042748;28;20039;-60
2023/07/28 00:50:43;;;;;;;4.40;4.00;;;15.70;99.90;;;;;;5041946;28;20051;-59
2023/07/28 00:53:09;;;;;;;4.75;4.25;;;15.70;99.90;;;;;;5041058;28;20032;-59
2023/07/28 00:55:35;;;;;;;3.65;3.03;;;15.70;99.90;;;;;;5036909;28;20037;-59
2023/07/28 00:58:00;;;;;;;3.50;3.20;;;15.60;99.90;;;;;;5037440;28;20143;-59
2023/07/28 01:00:26;;;;;;;4.35;3.50;;;15.70;99.90;;;;;;5035837;28;20719;-60
2023/07/28 01:02:51;;;;;;;3.28;3.00;;;15.60;99.90;;;;;;5037482;28;20779;-59
2023/07/28 01:05:17;;;;;;;3.45;3.15;;;15.60;99.90;;;;;;5045945;28;20399;-59
2023/07/28 01:08:01;;;;;;;5.03;4.60;;;15.60;99.90;;;;;;5035643;28;20068;-59
2023/07/28 01:10:32;;;;;;;3.80;3.50;;;15.60;99.90;;;;;;5037534;28;20029;-59
2023/07/28 01:12:59;;;;;;;3.22;2.97;;;15.60;99.90;;;;;;5040137;28;20033;-57
2023/07/28 01:15:25;;;;;;;3.72;3.42;;;15.60;99.90;;;;;;5045762;28;20726;-59
2023/07/28 01:17:52;;;;;;;3.65;3.35;;;15.60;99.90;;;;;;5042472;28;20025;-59
2023/07/28 01:20:17;;;;;;;3.67;3.38;;;15.60;99.90;;;;;;5045456;28;20032;-58
2023/07/28 01:22:52;;;;;;;3.75;3.45;;;15.60;99.90;;;;;;5036199;28;20091;-59
2023/07/28 01:25:33;;;;;;;3.83;3.50;;;15.60;99.90;;;;;;5044060;28;20064;-58
2023/07/28 01:28:01;;;;;;;3.30;3.00;;;15.60;99.90;;;;;;5039552;28;20052;-56
2023/07/28 01:30:30;;;;;;;3.08;2.83;;;15.60;99.90;;;;;;5042144;28;20087;-57
2023/07/28 01:32:56;;;;;;;4.40;4.00;;;15.60;99.90;;;;;;5035451;28;20025;-58
2023/07/28 01:35:22;;;;;;;4.88;4.45;;;15.60;99.90;;;;;;5033340;28;20496;-57
2023/07/28 01:37:50;;;;;;;3.63;3.10;;;15.60;99.90;;;;;;5035390;28;20782;-57
2023/07/28 01:40:20;;;;;;;3.42;3.13;;;15.60;99.90;;;;;;5041456;28;20021;-59
2023/07/28 01:42:46;;;;;;;3.85;3.55;;;15.60;99.90;;;;;;5043014;28;20025;-58
2023/07/28 01:45:11;;;;;;;3.67;3.35;;;15.60;99.90;;;;;;5039621;28;20028;-59
2023/07/28 01:47:37;;;;;;;3.70;3.40;;;15.60;99.90;;;;;;5037090;28;20029;-57
2023/07/28 01:50:03;;;;;;;3.38;3.08;;;15.60;99.90;;;;;;5039067;28;20013;-59
2023/07/28 01:52:28;;;;;;;4.20;3.70;;;15.60;99.90;;;;;;5039427;28;20032;-57
2023/07/28 01:54:56;;;;;;;3.45;3.15;;;15.60;99.90;;;;;;5041414;28;20021;-58
2023/07/28 01:57:21;;;;;;;3.20;3.00;;;15.60;99.90;;;;;;5045285;28;20033;-58
2023/07/28 01:59:47;;;;;;;5.43;4.35;;;15.60;99.90;;;;;;5038834;28;20031;-60
2023/07/28 02:02:12;;;;;;;8.93;4.10;;;15.60;99.90;;;;;;5039894;28;20492;-60
2023/07/28 02:04:38;;;;;;;3.75;3.45;;;15.60;99.90;;;;;;5042789;28;20483;-59
2023/07/28 02:07:05;;;;;;;3.80;3.50;;;15.60;99.90;;;;;;5045058;28;20476;-59
2023/07/28 02:09:30;;;;;;;3.55;3.28;;;15.60;99.90;;;;;;5043230;28;20021;-60
2023/07/28 02:11:56;;;;;;;4.05;3.40;;;15.60;99.90;;;;;;5044014;28;20017;-60
2023/07/28 02:14:21;;;;;;;5.22;4.68;;;15.60;99.90;;;;;;5040648;28;20029;-59
2023/07/28 02:16:47;;;;;;;4.88;3.55;;;15.60;99.90;;;;;;5043253;28;20032;-61
2023/07/28 02:19:12;;;;;;;3.78;3.47;;;15.50;99.90;;;;;;5039367;28;20078;-63
2023/07/28 02:21:38;;;;;;;4.40;4.10;;;15.50;99.90;;;;;;5044524;28;20067;-63
2023/07/28 02:24:04;;;;;;;5.43;4.93;;;15.60;99.90;;;;;;5034914;28;20032;-63
2023/07/28 02:26:29;;;;;;;5.63;5.20;;;15.60;99.90;;;;;;5043059;28;20021;-62
2023/07/28 02:28:55;;;;;;;4.43;4.03;;;15.60;99.90;;;;;;5060393;28;20025;-63
2023/07/28 02:31:20;;;;;;;5.72;5.22;;;15.60;99.90;;;;;;5041238;28;20508;-65
2023/07/28 02:33:46;;;;;;;5.18;4.32;;;15.60;99.90;;;;;;5043761;28;20506;-64
2023/07/28 02:36:11;;;;;;;4.97;4.50;;;15.50;99.90;;;;;;5035082;28;20109;-67
2023/07/28 02:38:37;;;;;;;4.70;4.30;;;15.50;99.90;;;;;;5035687;28;20029;-68
2023/07/28 02:41:03;;;;;;;4.55;4.15;;;15.50;99.90;;;;;;5039801;28;20018;-67
2023/07/28 02:43:29;;;;;;;4.75;4.35;;;15.50;99.90;;;;;;5038504;28;20024;-67
2023/07/28 02:45:56;;;;;;;3.70;3.40;;;15.50;99.90;;;;;;5043242;28;20479;-66
2023/07/28 02:48:22;;;;;;;3.58;3.28;;;15.50;99.90;;;;;;5041991;28;20630;-65
2023/07/28 02:50:50;;;;;;;4.25;3.65;;;15.50;99.90;;;;;;5040858;28;20076;-65
2023/07/28 02:53:16;;;;;;;3.55;3.25;;;15.50;99.90;;;;;;5043809;28;20045;-65
2023/07/28 02:55:45;;;;;;;2.88;2.67;;;15.50;99.90;;;;;;5043083;28;20033;-64
2023/07/28 02:58:11;;;;;;;3.20;2.90;;;15.40;99.90;;;;;;5045904;28;20029;-63
2023/07/28 03:00:41;;;;;;;2.65;2.45;;;15.40;99.90;;;;;;5044247;28;20029;-63
2023/07/28 03:03:10;;;;;;;2.90;2.70;;;15.50;99.90;;;;;;5046347;28;20487;-63
2023/07/28 03:05:36;;;;;;;3.08;2.85;;;15.50;99.90;;;;;;5062733;28;20079;-63
2023/07/28 03:08:02;;;;;;;3.08;2.78;;;15.50;99.90;;;;;;5047924;28;20027;-62
2023/07/28 03:10:28;;;;;;;2.17;2.08;;;15.50;99.90;;;;;;5039183;28;20033;-62
2023/07/28 03:12:53;;;;;;;2.88;2.67;;;15.50;99.90;;;;;;5047377;28;20048;-61
2023/07/28 03:15:21;;;;;;;3.13;2.65;;;15.50;99.90;;;;;;5041588;28;20087;-61
2023/07/28 03:17:47;;;;;;;2.40;2.20;;;15.50;99.90;;;;;;5048079;28;20052;-59
2023/07/28 03:20:13;;;;;;;1.95;1.85;;;15.50;99.90;;;;;;5040242;28;20495;-61
2023/07/28 03:22:38;;;;;;;3.40;3.10;;;15.50;99.90;;;;;;5046193;28;20073;-60
2023/07/28 03:25:04;;;;;;;3.70;3.40;;;15.50;99.90;;;;;;5044164;28;20029;-63
2023/07/28 03:27:30;;;;;;;2.30;2.20;;;15.40;99.90;;;;;;5048458;28;20535;-62
2023/07/28 03:29:55;;;;;;;2.40;2.20;;;15.40;99.90;;;;;;5039322;28;20510;-63
2023/07/28 03:32:21;;;;;;;3.92;3.50;;;15.40;99.90;;;;;;5042352;28;20041;-62
2023/07/28 03:34:47;;;;;;;4.30;3.90;;;15.40;99.90;;;;;;5046761;28;20029;-62
2023/07/28 03:37:12;;;;;;;3.65;3.25;;;15.40;99.90;;;;;;5042945;28;20047;-63
2023/07/28 03:39:38;;;;;;;3.20;2.92;;;15.40;99.90;;;;;;5047322;28;20052;-63
2023/07/28 03:42:03;;;;;;;3.40;3.13;;;15.40;99.90;;;;;;5043608;28;20025;-63
2023/07/28 03:44:29;;;;;;;2.67;2.47;;;15.40;99.90;;;;;;5046552;28;20029;-63
2023/07/28 03:46:55;;;;;;;3.22;3.03;;;15.40;99.90;;;;;;5042244;28;20494;-61
2023/07/28 03:49:20;;;;;;;3.60;3.30;;;15.40;99.90;;;;;;5045881;28;20105;-62
2023/07/28 03:51:46;;;;;;;2.97;2.72;;;15.40;99.90;;;;;;5040926;28;20042;-61
2023/07/28 03:54:11;;;;;;;3.53;3.15;;;15.40;99.90;;;;;;5038407;28;20443;-62
2023/07/28 03:56:37;;;;;;;5.07;3.85;;;15.40;99.90;;;;;;5042638;28;20574;-61
2023/07/28 03:59:02;;;;;;;3.17;2.95;;;15.40;99.90;;;;;;5043980;28;21462;-61
2023/07/28 04:01:28;;;;;;;4.00;3.65;;;15.40;99.90;;;;;;5042358;28;20119;-61
2023/07/28 04:03:54;;;;;;;3.30;3.08;;;15.40;99.90;;;;;;5044114;28;20029;-61
2023/07/28 04:06:38;;;;;;;2.80;2.60;;;15.40;99.90;;;;;;5043725;28;20108;-60
2023/07/28 04:09:04;;;;;;;4.85;4.18;;;15.40;99.90;;;;;;5039634;28;20029;-59
2023/07/28 04:11:29;;;;;;;3.88;3.58;;;15.40;99.90;;;;;;5044468;28;20055;-60
2023/07/28 04:13:55;;;;;;;3.75;3.45;;;15.40;99.90;;;;;;5040568;28;20029;-60
2023/07/28 04:16:20;;;;;;;2.97;2.78;;;15.40;99.90;;;;;;5043904;28;20029;-60
2023/07/28 04:18:46;;;;;;;4.25;3.85;;;15.40;99.90;;;;;;5045967;28;20017;-59
2023/07/28 04:21:11;;;;;;;3.63;3.33;;;15.40;99.90;;;;;;5039171;28;20025;-60
2023/07/28 04:23:37;;;;;;;3.53;3.22;;;15.40;99.90;;;;;;5040122;28;20509;-59
2023/07/28 04:26:02;;;;;;;3.20;2.90;;;15.40;99.90;;;;;;5039497;28;20036;-60
2023/07/28 04:28:28;;;;;;;3.75;3.45;;;15.50;99.90;;;;;;5041440;28;20025;-60
2023/07/28 04:30:53;;;;;;;3.88;3.45;;;15.50;99.90;;;;;;5043856;28;20119;-61
2023/07/28 04:33:19;;;;;;;3.28;2.97;;;15.50;99.90;;;;;;5049998;28;20104;-59
2023/07/28 04:35:44;;;;;;;5.05;4.63;;;15.50;99.90;;;;;;5039198;28;20033;-57
2023/07/28 04:38:10;;;;;;;3.20;2.90;;;15.50;99.90;;;;;;5040598;28;20053;-57
2023/07/28 04:40:35;;;;;;;4.47;4.07;;;15.50;99.90;;;;;;5039773;28;20021;-59
2023/07/28 04:43:01;;;;;;;4.97;4.53;;;15.50;99.90;;;;;;5042846;28;20047;-58
2023/07/28 04:45:27;;;;;;;5.07;4.57;;;15.50;99.90;;;;;;5041675;28;21028;-57
2023/07/28 04:47:52;;;;;;;4.63;4.10;;;15.50;99.90;;;;;;5037334;28;20421;-59
2023/07/28 04:50:20;;;;;;;4.18;3.85;;;15.50;99.90;;;;;;5044360;28;20025;-57
2023/07/28 04:52:45;;;;;;;4.97;4.57;;;15.50;99.90;;;;;;5037559;28;20459;-58
2023/07/28 04:55:11;;;;;;;3.85;3.55;;;15.50;99.90;;;;;;5038399;28;20056;-58
2023/07/28 04:57:36;;;;;;;4.47;4.07;;;15.60;99.90;;;;;;5041040;28;20444;-57
2023/07/28 05:00:03;;;;;;;5.32;4.78;;;15.60;99.90;;;;;;5042059;28;20491;-59
2023/07/28 05:02:29;;;;;;;5.25;4.75;;;15.60;99.90;;;;;;5044782;28;20059;-59
2023/07/28 05:04:54;;;;;;;5.13;4.43;;;15.60;99.90;;;;;;5045020;28;20125;-57
2023/07/28 05:07:23;;;;;;;6.10;5.55;;;15.60;99.90;;;;;;5037626;28;20873;-58
2023/07/28 05:09:48;;;;;;;5.90;5.40;;;15.60;99.90;;;;;;5037411;28;20033;-56
2023/07/28 05:12:14;;;;;;;6.38;5.72;;;15.60;99.90;;;;;;5033968;28;20101;-57
2023/07/28 05:14:40;;;;;;;4.75;4.32;;;15.70;99.90;;;;;;5038984;28;20035;-57
2023/07/28 05:17:06;;;;;;;7.32;6.47;;;15.70;99.90;;;;;;5036360;28;20104;-54
2023/07/28 05:19:31;;;;;;;6.15;5.55;;;15.70;99.90;;;;;;5042282;28;20056;-59
2023/07/28 05:21:57;;;;;;;5.75;5.00;;;15.70;99.90;;;;;;5038713;28;20110;-58
2023/07/28 05:24:23;;;;;;;5.45;4.95;;;15.80;99.90;;;;;;5040215;28;20037;-58
2023/07/28 05:26:48;;;;;;;6.20;5.60;;;15.80;99.90;;;;;;5059503;28;20021;-58
2023/07/28 05:29:14;;;;;;;7.10;6.07;;;15.90;99.90;;;;;;5045138;28;20032;-58
2023/07/28 05:31:40;;;;;;;7.18;6.47;;;16.00;99.90;;;;;;5040709;28;20143;-56
2023/07/28 05:34:05;;;;;;;8.35;7.55;;;16.00;99.90;;;;;;5045251;28;20032;-58
2023/07/28 05:36:31;;;;;;;7.15;6.43;;;16.00;99.90;;;;;;5036552;28;20047;-57
2023/07/28 05:38:57;;;;;;;8.40;7.55;;;16.10;99.90;;;;;;5037018;28;20057;-59
2023/07/28 05:41:24;;;;;;;8.60;7.15;;;16.00;99.90;;;;;;5044974;28;20029;-58
2023/07/28 05:43:50;;;;;;;6.18;5.57;;;16.00;99.90;;;;;;5042725;28;20112;-57
2023/07/28 05:46:16;;;;;;;9.23;8.23;;;16.10;99.90;;;;;;5045514;28;20606;-58
2023/07/28 05:48:42;;;;;;;6.55;5.95;;;16.10;99.90;;;;;;5041635;28;20033;-58
2023/07/28 05:51:07;;;;;;;8.82;8.02;;;16.10;99.90;;;;;;5044769;28;20832;-56
2023/07/28 05:53:33;;;;;;;7.20;6.50;;;16.10;99.90;;;;;;5037757;28;20410;-58
2023/07/28 05:55:58;;;;;;;9.18;6.35;;;16.20;99.90;;;;;;5041690;28;20029;-58
2023/07/28 05:58:24;;;;;;;6.78;6.07;;;16.20;99.90;;;;;;5040504;28;20411;-56
2023/07/28 06:00:49;;;;;;;7.60;6.95;;;16.30;99.90;;;;;;5043190;28;20662;-56
2023/07/28 06:03:16;;;;;;;7.03;6.32;;;16.30;99.90;;;;;;5055547;28;20025;-58
2023/07/28 06:05:42;;;;;;;9.57;7.97;;;16.30;99.90;;;;;;5041895;28;20108;-58
2023/07/28 06:08:08;;;;;;;8.15;7.45;;;16.40;99.90;;;;;;5043557;28;20541;-56
2023/07/28 06:10:36;;;;;;;6.72;6.13;;;16.30;99.90;;;;;;5039237;28;20025;-58
2023/07/28 06:13:02;;;;;;;6.18;5.63;;;16.30;99.90;;;;;;5050611;28;20036;-58
2023/07/28 06:15:27;;;;;;;7.75;6.68;;;16.40;99.90;;;;;;5038662;28;20104;-55
2023/07/28 06:17:53;;;;;;;7.53;6.82;;;16.40;99.90;;;;;;5041205;28;20085;-58
2023/07/28 06:20:18;;;;;;;7.03;6.43;;;16.40;99.90;;;;;;5043200;28;20099;-59
2023/07/28 06:22:44;;;;;;;6.88;6.28;;;16.40;99.90;;;;;;5044045;28;20060;-58
2023/07/28 06:25:10;;;;;;;6.90;6.05;;;16.40;99.90;;;;;;5041712;28;20087;-58
2023/07/28 06:27:36;;;;;;;7.28;6.57;;;16.40;99.90;;;;;;5043969;28;20732;-57
2023/07/28 06:30:02;;;;;;;7.45;6.63;;;16.50;99.90;;;;;;5035105;28;20033;-57
2023/07/28 06:32:27;;;;;;;7.72;7.00;;;16.50;99.90;;;;;;5040239;28;20311;-57
2023/07/28 06:34:54;;;;;;;8.60;7.75;;;16.50;99.90;;;;;;5043931;28;20104;-58
2023/07/28 06:37:19;;;;;;;7.90;7.20;;;16.60;99.90;;;;;;5046794;28;20601;-58
2023/07/28 06:39:45;;;;;;;8.18;7.38;;;16.60;99.90;;;;;;5039289;28;20052;-55
2023/07/28 06:42:11;;;;;;;6.63;6.03;;;16.60;99.90;;;;;;5043595;28;20020;-57
2023/07/28 06:44:37;;;;;;;5.75;5.25;;;16.70;99.90;;;;;;5056780;28;20028;-58
2023/07/28 06:47:03;;;;;;;5.97;5.47;;;16.70;99.90;;;;;;5045011;28;20014;-58
2023/07/28 06:49:29;;;;;;;4.85;4.45;;;16.80;99.90;;;;;;5042504;28;20475;-56
2023/07/28 06:51:54;;;;;;;4.47;4.07;;;16.80;99.90;;;;;;5043612;28;20053;-54
2023/07/28 06:54:20;;;;;;;6.30;5.20;;;16.90;99.90;;;;;;5043269;28;20083;-58
2023/07/28 06:56:45;;;;;;;5.28;4.78;;;16.90;99.90;;;;;;5037387;28;20459;-58
2023/07/28 06:59:11;;;;;;;5.90;5.35;;;16.90;99.90;;;;;;5040285;28;20028;-57
2023/07/28 07:01:37;;;;;;;5.32;4.82;;;16.90;99.90;;;;;;5047803;28;20044;-57
2023/07/28 07:04:04;;;;;;;5.28;4.75;;;16.90;99.90;;;;;;5043703;28;20448;-56
2023/07/28 07:06:30;;;;;;;6.40;5.80;;;17.00;99.90;;;;;;5047173;28;20017;-54
2023/07/28 07:08:56;;;;;;;7.05;6.35;;;17.10;99.90;;;;;;5045284;28;20106;-55
2023/07/28 07:11:21;;;;;;;7.20;6.43;;;17.10;99.90;;;;;;5042177;28;20115;-52
2023/07/28 07:13:47;;;;;;;5.50;5.00;;;17.00;99.90;;;;;;5045717;28;20108;-60
2023/07/28 07:16:16;;;;;;;5.97;5.43;;;17.10;99.90;;;;;;5045226;28;20062;-56
2023/07/28 07:18:43;;;;;;;10.43;7.30;;;17.20;99.90;;;;;;5044527;28;20113;-55
2023/07/28 07:21:09;;;;;;;6.65;5.95;;;17.20;99.90;;;;;;5047178;28;20633;-52
2023/07/28 07:23:35;;;;;;;6.10;5.55;;;17.30;99.90;;;;;;5041317;28;20017;-54
2023/07/28 07:26:01;;;;;;;4.60;4.20;;;17.30;99.90;;;;;;5047498;28;20013;-57
2023/07/28 07:28:28;;;;;;;4.60;4.20;;;17.40;99.90;;;;;;5044598;28;20037;-52
2023/07/28 07:30:54;;;;;;;4.85;3.90;;;17.50;99.90;;;;;;5041698;28;20408;-53
2023/07/28 07:33:20;;;;;;;5.95;5.25;;;17.50;99.90;;;;;;5041095;28;20037;-53
2023/07/28 07:35:46;;;;;;;5.13;4.68;;;17.60;99.90;;;;;;5038761;28;20089;-55
2023/07/28 07:38:11;;;;;;;4.70;3.70;;;17.60;99.90;;;;;;5038065;28;20399;-54
2023/07/28 07:40:37;;;;;;;5.00;4.50;;;17.60;99.90;;;;;;5044737;28;20052;-50
2023/07/28 07:43:04;;;;;;;4.70;3.83;;;17.60;99.90;;;;;;5044000;28;20400;-56
2023/07/28 07:45:33;;;;;;;3.97;3.67;;;17.70;99.90;;;;;;5038921;28;20032;-53
2023/07/28 07:47:59;;;;;;;3.72;3.13;;;17.80;99.90;;;;;;5043439;28;20036;-56
2023/07/28 07:50:25;;;;;;;3.17;2.88;;;17.80;99.90;;;;;;5038133;28;20064;-57
2023/07/28 07:52:50;;;;;;;2.78;2.53;;;17.80;99.90;;;;;;5046598;28;20045;-54
2023/07/28 07:55:16;;;;;;;5.53;3.75;;;17.90;99.90;;;;;;5042322;28;20045;-57
2023/07/28 07:57:41;;;;;;;3.03;2.78;;;17.80;99.90;;;;;;5037859;28;20021;-54
2023/07/28 08:00:08;;;;;;;3.55;3.25;;;17.90;99.90;;;;;;5039541;28;20029;-53
2023/07/28 08:02:34;;;;;;;3.60;3.30;;;18.00;99.90;;;;;;5043377;28;20175;-54
2023/07/28 08:05:00;;;;;;;3.20;2.90;;;18.10;99.90;;;;;;5039813;28;20111;-55
2023/07/28 08:07:26;;;;;;;5.43;3.47;;;18.20;99.90;;;;;;5043604;28;20195;-54
2023/07/28 08:09:52;;;;;;;2.97;2.78;;;18.20;99.90;;;;;;5044750;28;20025;-52
2023/07/28 08:12:17;;;;;;;3.33;3.13;;;18.30;99.90;;;;;;5045114;28;20033;-55
2023/07/28 08:14:43;;;;;;;3.42;3.13;;;18.30;99.90;;;;;;5045172;28;20025;-56
2023/07/28 08:17:09;;;;;;;2.70;2.50;;;18.40;99.90;;;;;;5040973;28;20024;-55
2023/07/28 08:19:35;;;;;;;3.00;2.78;;;18.40;99.90;;;;;;5035567;28;20087;-55
2023/07/28 08:22:03;;;;;;;2.90;2.70;;;18.40;99.90;;;;;;4992707;22;20047;-64
2023/07/28 08:24:29;;;;;;;3.72;2.80;;;18.40;99.90;;;;;;4933404;29;20042;-63
2023/07/28 08:26:54;;;;;;;2.88;2.67;;;18.50;99.90;;;;;;4937352;29;20031;-64
2023/07/28 08:29:20;;;;;;;4.05;2.50;;;18.50;99.90;;;;;;4935858;29;20032;-63
2023/07/28 08:31:46;;;;;;;3.17;2.88;;;18.50;99.90;;;;;;4934006;28;20060;-63
2023/07/28 08:34:12;;;;;;;3.00;2.72;;;18.50;99.90;;;;;;4990499;28;20396;-64
2023/07/28 08:36:38;;;;;;;3.63;2.70;;;18.50;99.90;;;;;;4978037;28;20029;-64
2023/07/28 08:39:04;;;;;;;2.30;2.10;;;18.50;99.90;;;;;;4997825;28;20621;-64
2023/07/28 08:41:29;;;;;;;3.05;2.70;;;18.60;99.90;;;;;;4947867;28;20031;-64
2023/07/28 08:43:55;;;;;;;3.97;2.42;;;18.60;99.90;;;;;;4980669;28;20843;-64
2023/07/28 08:46:21;;;;;;;2.50;2.30;;;18.60;99.90;;;;;;4945051;28;20066;-64
2023/07/28 08:48:47;;;;;;;2.33;2.17;;;18.60;99.90;;;;;;4990632;28;20043;-64
2023/07/28 08:51:13;;;;;;;1.77;1.65;;;18.60;99.90;;;;;;4951853;28;20397;-64
2023/07/28 08:53:39;;;;;;;1.88;1.77;;;18.70;99.90;;;;;;4990889;28;20025;-65
2023/07/28 08:56:08;;;;;;;1.83;1.73;;;18.70;99.90;;;;;;4975810;28;20503;-64
2023/07/28 08:58:34;;;;;;;2.45;2.25;;;18.70;99.90;;;;;;4953700;28;20126;-65
2023/07/28 09:01:00;;;;;;;2.05;1.90;;;18.80;99.90;;;;;;4953121;28;20118;-62
2023/07/28 09:03:27;;;;;;;2.05;1.90;;;18.80;99.90;;;;;;4969900;28;20019;-64
2023/07/28 09:06:01;;;;;;;2.05;1.88;;;18.90;99.90;;;;;;4963885;28;20485;-63
2023/07/28 09:08:27;;;;;;;1.92;1.80;;;18.90;99.90;;;;;;5006187;28;20029;-63
2023/07/28 09:10:54;;;;;;;2.15;1.95;;;18.90;99.90;;;;;;4968303;28;20107;-62
2023/07/28 09:13:20;;;;;;;2.60;2.40;;;19.00;99.90;;;;;;5007708;28;20033;-63
2023/07/28 09:15:46;;;;;;;2.17;1.90;;;19.10;99.90;;;;;;4935774;28;20081;-63
2023/07/28 09:18:16;;;;;;;1.80;1.65;;;19.20;99.90;;;;;;4972884;28;20039;-64
2023/07/28 09:20:45;;;;;;;2.25;2.05;;;19.20;99.90;;;;;;4939881;28;20043;-63
2023/07/28 09:23:13;;;;;;;2.55;2.35;;;19.20;99.90;;;;;;4969200;28;20020;-64
2023/07/28 09:25:38;;;;;;;2.55;2.35;;;19.30;99.90;;;;;;4942598;28;20474;-65
2023/07/28 09:28:05;;;;;;;2.83;2.60;;;19.30;99.90;;;;;;4944229;28;20049;-63
2023/07/28 09:30:50;;;;;;;2.40;2.20;;;19.20;99.90;;;;;;4950892;28;20046;-63
2023/07/28 09:33:32;;;;;;;2.78;2.08;;;19.20;99.90;;;;;;4966219;28;20029;-62
2023/07/28 09:36:10;;;;;;;2.15;1.70;;;19.30;99.90;;;;;;4934329;28;20039;-63
2023/07/28 09:38:38;;;;;;;3.28;2.10;;;19.40;99.90;;;;;;4980842;28;20510;-64
2023/07/28 09:41:09;;;;;;;2.17;1.98;;;19.40;99.90;;;;;;4953647;28;20493;-61
2023/07/28 09:43:35;;;;;;;2.17;2.08;;;19.50;99.90;;;;;;4985397;28;20030;-63
2023/07/28 09:46:07;;;;;;;1.77;1.67;;;19.60;99.90;;;;;;4972825;28;20412;-63
2023/07/28 09:48:34;;;;;;;2.58;2.00;;;19.50;99.90;;;;;;4989212;28;20107;-62
2023/07/28 09:51:16;;;;;;;1.75;1.65;;;19.50;99.90;;;;;;4978814;28;20026;-63
2023/07/28 09:53:46;;;;;;;3.92;2.13;;;19.60;99.90;;;;;;4941709;28;20040;-60
2023/07/28 09:56:15;;;;;;;1.80;1.70;;;19.40;99.90;;;;;;4944944;28;20414;-62
2023/07/28 09:58:44;;;;;;;2.03;1.92;;;19.40;99.90;;;;;;4995915;28;20136;-61
2023/07/28 10:01:10;;;;;;;1.55;1.45;;;19.30;99.90;;;;;;4939121;28;20035;-64
2023/07/28 10:03:37;;;;;;;3.83;2.78;;;19.40;99.90;;;;;;4971855;28;20067;-63
2023/07/28 10:06:03;;;;;;;2.40;2.20;;;19.40;99.90;;;;;;4976921;28;20521;-62
2023/07/28 10:08:29;;;;;;;2.13;2.03;;;19.40;99.90;;;;;;4971667;28;20061;-62
2023/07/28 10:10:56;;;;;;;2.58;1.88;;;19.40;99.90;;;;;;4952091;28;20416;-63
2023/07/28 10:13:22;;;;;;;1.80;1.70;;;19.50;99.90;;;;;;4974018;28;20096;-63
2023/07/28 10:15:48;;;;;;;2.55;2.28;;;19.50;99.90;;;;;;4972441;28;20631;-61
2023/07/28 10:18:14;;;;;;;1.50;1.40;;;19.50;99.90;;;;;;4939502;28;20077;-60
2023/07/28 10:20:42;;;;;;;2.30;2.10;;;19.50;99.90;;;;;;4988524;28;20039;-62
2023/07/28 10:23:12;;;;;;;1.58;1.48;;;19.60;99.90;;;;;;4993382;28;20016;-61
2023/07/28 10:25:39;;;;;;;1.75;1.65;;;19.60;99.90;;;;;;4953429;28;20375;-62
2023/07/28 10:28:06;;;;;;;3.40;2.60;;;19.70;99.90;;;;;;4945562;28;20024;-63
2023/07/28 10:30:50;;;;;;;2.20;2.10;;;19.70;99.90;;;;;;4980682;28;20055;-61
2023/07/28 10:33:32;;;;;;;1.98;1.60;;;19.80;99.90;;;;;;4958148;28;20121;-62
2023/07/28 10:36:23;;;;;;;2.35;2.10;;;19.90;99.90;;;;;;4962534;28;20021;-62
2023/07/28 10:39:16;;;;;;;1.80;1.70;;;19.90;99.90;;;;;;4992255;28;20044;-62
2023/07/28 10:42:03;;;;;;;2.67;1.88;;;19.90;99.90;;;;;;4967626;28;20099;-60
2023/07/28 10:44:30;;;;;;;1.95;1.80;;;19.90;99.90;;;;;;4939133;28;20028;-62
2023/07/28 10:46:56;;;;;;;1.70;1.60;;;19.90;99.90;;;;;;4963088;28;20388;-59
2023/07/28 10:49:24;;;;;;;2.10;1.90;;;19.80;99.90;;;;;;4935863;28;20035;-60
2023/07/28 10:51:49;;;;;;;1.83;1.48;;;19.90;99.90;;;;;;4949424;28;20033;-62
2023/07/28 10:54:18;;;;;;;1.70;1.60;;;19.90;99.90;;;;;;4936902;28;20110;-61
2023/07/28 10:56:44;;;;;;;1.50;1.40;;;20.00;99.90;;;;;;4994077;28;20024;-63
2023/07/28 10:59:10;;;;;;;1.45;1.35;;;20.00;99.90;;;;;;4951554;28;20039;-62
2023/07/28 11:01:37;;;;;;;1.65;1.55;;;20.00;99.90;;;;;;4945611;28;20036;-60
2023/07/28 11:04:23;;;;;;;1.35;1.25;;;20.10;99.90;;;;;;4954366;28;20090;-62
2023/07/28 11:06:50;;;;;;;1.67;1.50;;;20.10;99.90;;;;;;4949796;28;20364;-61
2023/07/28 11:09:18;;;;;;;1.58;1.48;;;20.10;99.90;;;;;;4969147;28;20118;-60
2023/07/28 11:11:45;;;;;;;1.48;1.38;;;20.20;99.90;;;;;;4950308;28;20032;-62
2023/07/28 11:14:11;;;;;;;1.33;1.23;;;20.20;99.90;;;;;;4968953;28;20077;-59
2023/07/28 11:16:40;;;;;;;2.00;1.73;;;20.20;99.90;;;;;;4957209;28;20039;-58
2023/07/28 11:19:10;;;;;;;2.50;1.52;;;20.30;99.90;;;;;;4953415;28;20305;-60
2023/07/28 11:21:43;;;;;;;1.48;1.38;;;20.30;99.90;;;;;;4975268;28;20497;-60
2023/07/28 11:24:10;;;;;;;1.58;1.48;;;20.40;99.90;;;;;;5008108;28;20025;-60
2023/07/28 11:26:39;;;;;;;1.90;1.80;;;20.60;99.90;;;;;;4986151;28;20075;-60
2023/07/28 11:29:05;;;;;;;2.42;1.80;;;20.70;99.90;;;;;;4944813;28;20153;-62
2023/07/28 11:31:33;;;;;;;1.48;1.38;;;20.90;99.90;;;;;;4943756;28;20130;-63
2023/07/28 11:33:58;;;;;;;1.92;1.75;;;21.10;99.90;;;;;;4958445;28;20105;-62
2023/07/28 11:36:24;;;;;;;2.00;1.88;;;21.30;99.90;;;;;;4969023;28;20161;-62
2023/07/28 11:38:55;;;;;;;2.25;1.58;;;21.30;99.90;;;;;;4936617;28;20123;-62
2023/07/28 11:41:22;;;;;;;2.00;1.80;;;21.40;99.90;;;;;;4967937;28;20068;-62
2023/07/28 11:43:49;;;;;;;1.90;1.80;;;21.50;99.90;;;;;;4956899;28;20023;-64
2023/07/28 11:46:33;;;;;;;1.77;1.67;;;21.50;99.90;;;;;;4998165;28;20037;-60
2023/07/28 11:49:16;;;;;;;1.60;1.50;;;21.50;99.90;;;;;;4949170;28;20544;-61
2023/07/28 11:51:47;;;;;;;1.42;1.20;;;21.60;99.90;;;;;;4980090;28;20042;-62
2023/07/28 11:54:14;;;;;;;1.65;1.52;;;21.60;99.90;;;;;;4954172;28;20039;-61
2023/07/28 11:56:44;;;;;;;1.27;1.17;;;21.60;99.90;;;;;;5007769;28;20034;-62
2023/07/28 11:59:10;;;;;;;1.50;1.40;;;21.60;99.90;;;;;;4964681;28;20533;-62
2023/07/28 12:02:00;;;;;;;1.83;1.70;;;21.60;99.90;;;;;;4986003;28;20031;-61
2023/07/28 12:04:37;;;;;;;1.20;1.15;;;21.60;99.90;;;;;;4962779;28;20393;-62
2023/07/28 12:07:12;;;;;;;1.20;1.10;;;21.60;99.90;;;;;;4992949;28;20022;-62
2023/07/28 12:09:48;;;;;;;1.80;1.67;;;21.70;99.90;;;;;;4968726;28;20073;-61
2023/07/28 12:12:21;;;;;;;1.95;1.67;;;21.80;99.90;;;;;;4982068;28;20037;-62
2023/07/28 12:14:47;;;;;;;1.52;1.42;;;21.70;99.90;;;;;;4983229;28;20040;-61
2023/07/28 12:17:14;;;;;;;1.65;1.55;;;21.70;99.90;;;;;;4991266;28;20029;-62
2023/07/28 12:20:11;;;;;;;1.77;1.67;;;21.70;99.90;;;;;;4950391;28;20027;-62
2023/07/28 12:22:41;;;;;;;1.42;1.33;;;21.70;99.90;;;;;;5008542;28;20108;-61
2023/07/28 12:25:08;;;;;;;2.40;1.70;;;21.60;99.90;;;;;;4941515;28;20512;-61
2023/07/28 12:27:34;;;;;;;1.73;1.60;;;21.60;99.90;;;;;;4945909;28;20027;-61
2023/07/28 12:30:00;;;;;;;1.85;1.50;;;21.60;99.90;;;;;;4995588;28;20082;-62
2023/07/28 12:32:25;;;;;;;1.52;1.42;;;21.60;99.90;;;;;;4930362;28;20438;-61
2023/07/28 12:34:51;;;;;;;1.35;1.25;;;21.60;99.90;;;;;;4978859;28;20029;-62
2023/07/28 12:37:20;;;;;;;2.33;1.70;;;21.60;99.90;;;;;;4973127;28;20027;-61
2023/07/28 12:39:46;;;;;;;1.20;1.10;;;21.70;99.90;;;;;;4978425;28;20029;-60
2023/07/28 12:42:12;;;;;;;1.58;1.48;;;21.70;99.90;;;;;;4965405;28;20454;-61
2023/07/28 12:44:38;;;;;;;1.70;1.60;;;21.80;99.90;;;;;;4949659;28;20551;-62
2023/07/28 12:47:05;;;;;;;1.75;1.42;;;21.90;99.90;;;;;;4991716;28;20235;-62
2023/07/28 12:49:31;;;;;;;2.50;1.65;;;21.90;99.90;;;;;;4971685;28;20046;-61